createdAt,value
2017-07-23T00:04:21.574Z,90.10
2017-07-23T00:09:23.229Z,91.20
2017-07-23T00:14:24.893Z,86.00
2017-07-23T00:19:27.039Z,85.20
2017-07-23T00:24:28.653Z,85.40
2017-07-23T00:29:30.349Z,85.50
2017-07-23T00:34:32.020Z,85.30
2017-07-23T00:39:33.664Z,85.90
2017-07-23T00:44:35.351Z,83.10
2017-07-23T00:49:37.038Z,84.50
2017-07-23T00:54:38.711Z,85.50
2017-07-23T00:59:40.383Z,85.40
2017-07-23T01:04:42.041Z,84.20
2017-07-23T01:09:43.831Z,84.10
2017-07-23T01:14:45.435Z,82.70
2017-07-23T01:19:47.077Z,84.60
2017-07-23T01:24:48.730Z,84.00
2017-07-23T01:29:50.867Z,86.10
2017-07-23T01:34:52.706Z,85.30
2017-07-23T01:39:54.585Z,84.80
2017-07-23T01:44:56.904Z,83.60
2017-07-23T01:49:58.496Z,83.90
2017-07-23T01:55:00.808Z,84.60
2017-07-23T02:00:03.119Z,85.60
2017-07-23T02:05:04.893Z,85.50
2017-07-23T02:10:06.669Z,85.70
2017-07-23T02:15:08.341Z,83.00
2017-07-23T02:20:11.038Z,83.30
2017-07-23T02:25:12.643Z,83.10
2017-07-23T02:30:15.049Z,82.20
2017-07-23T02:35:25.272Z,79.50
2017-07-23T02:40:42.238Z,79.50
2017-07-23T02:45:58.739Z,78.70
2017-07-23T02:51:15.279Z,77.50
2017-07-23T02:56:18.001Z,77.70
2017-07-23T03:01:21.187Z,77.80
2017-07-23T03:06:38.453Z,77.80
2017-07-23T03:11:56.067Z,78.20
2017-07-23T03:17:12.596Z,78.20
2017-07-23T03:22:29.206Z,78.30
2017-07-23T03:27:30.923Z,78.40
2017-07-23T03:32:32.625Z,79.10
2017-07-23T03:37:34.274Z,79.40
2017-07-23T03:42:35.971Z,79.20
2017-07-23T03:47:37.575Z,79.10
2017-07-23T03:52:39.890Z,78.40
2017-07-23T03:57:41.589Z,78.60
2017-07-23T04:02:43.260Z,80.50
2017-07-23T04:07:45.030Z,80.50
2017-07-23T04:12:46.724Z,80.40
2017-07-23T04:17:48.381Z,81.50
2017-07-23T04:22:51.038Z,82.30
2017-07-23T04:27:52.765Z,82.90
2017-07-23T04:32:54.321Z,83.30
2017-07-23T04:37:56.111Z,82.50
2017-07-23T04:42:57.994Z,82.40
2017-07-23T04:47:59.665Z,81.90
2017-07-23T04:53:01.436Z,82.70
2017-07-23T04:58:03.043Z,81.80
2017-07-23T05:03:04.781Z,80.50
2017-07-23T05:08:06.639Z,78.50
2017-07-23T05:13:08.304Z,75.30
2017-07-23T05:18:10.005Z,75.50
2017-07-23T05:23:11.677Z,73.10
2017-07-23T05:28:13.319Z,72.30
2017-07-23T05:33:15.021Z,76.30
2017-07-23T05:38:16.695Z,71.50
2017-07-23T05:43:18.645Z,69.00
2017-07-23T05:48:20.419Z,70.10
2017-07-23T05:53:22.121Z,69.60
2017-07-23T05:58:24.655Z,72.10
2017-07-23T06:03:26.492Z,70.40
2017-07-23T06:08:28.246Z,69.20
2017-07-23T06:13:29.912Z,66.80
2017-07-23T06:18:31.576Z,64.70
2017-07-23T06:23:33.286Z,70.10
2017-07-23T06:28:34.957Z,69.00
2017-07-23T06:33:36.631Z,66.70
2017-07-23T06:38:38.883Z,64.30
2017-07-23T06:43:40.589Z,64.70
2017-07-23T06:48:42.241Z,66.40
2017-07-23T06:53:43.936Z,65.30
2017-07-23T06:58:46.185Z,66.40
2017-07-23T07:03:48.421Z,63.90
2017-07-23T07:08:50.113Z,65.70
2017-07-23T07:13:51.792Z,63.10
2017-07-23T07:18:53.630Z,62.40
2017-07-23T07:23:55.405Z,63.80
2017-07-23T07:28:57.078Z,64.80
2017-07-23T07:33:59.995Z,64.50
2017-07-23T07:39:05.523Z,65.40
2017-07-23T07:44:07.319Z,67.80
2017-07-23T07:49:08.991Z,68.70
2017-07-23T07:54:11.279Z,68.50
2017-07-23T07:59:12.930Z,68.90
2017-07-23T08:04:15.954Z,71.90
2017-07-23T08:09:17.630Z,75.20
2017-07-23T08:14:20.606Z,69.00
2017-07-23T08:19:25.069Z,67.50
2017-07-23T08:24:31.316Z,68.00
2017-07-23T08:29:33.024Z,68.50
2017-07-23T08:34:34.679Z,67.50
2017-07-23T08:39:38.133Z,68.00
2017-07-23T08:44:39.783Z,67.60
2017-07-23T08:49:41.430Z,68.80
2017-07-23T08:54:43.100Z,67.00
2017-07-23T08:59:46.309Z,62.50
2017-07-23T09:04:49.991Z,57.50
2017-07-23T09:09:51.699Z,57.60
2017-07-23T09:14:53.507Z,58.40
2017-07-23T09:19:55.280Z,57.80
2017-07-23T09:24:56.953Z,58.70
2017-07-23T09:29:58.580Z,58.40
2017-07-23T09:35:00.875Z,57.20
2017-07-23T09:40:02.791Z,56.60
2017-07-23T09:45:04.567Z,57.40
2017-07-23T09:50:06.208Z,56.80
2017-07-23T09:55:07.844Z,56.60
2017-07-23T10:00:10.302Z,58.40
2017-07-23T10:05:12.075Z,59.00
2017-07-23T10:10:13.749Z,57.10
2017-07-23T10:15:15.531Z,56.10
2017-07-23T10:26:05.664Z,55.90
2017-07-23T10:31:07.445Z,56.20
2017-07-23T10:36:18.783Z,54.00
2017-07-23T10:41:22.564Z,52.70
2017-07-23T10:46:24.673Z,52.10
2017-07-23T10:51:26.322Z,50.90
2017-07-23T10:56:28.064Z,48.30
2017-07-23T11:06:57.331Z,48.70
2017-07-23T11:11:58.995Z,48.60
2017-07-23T11:17:00.676Z,48.00
2017-07-23T11:22:02.365Z,46.00
2017-07-23T11:27:04.120Z,43.90
2017-07-23T11:32:06.460Z,44.50
2017-07-23T11:37:08.510Z,44.70
2017-07-23T11:42:10.586Z,45.10
2017-07-23T11:47:12.200Z,45.60
2017-07-23T11:52:13.907Z,44.70
2017-07-23T11:57:16.594Z,45.80
2017-07-23T12:02:18.244Z,43.30
2017-07-23T12:07:19.929Z,44.80
2017-07-23T12:12:21.666Z,42.50
2017-07-23T12:17:23.251Z,43.90
2017-07-23T12:22:26.230Z,43.90
2017-07-23T12:27:29.750Z,44.20
2017-07-23T12:32:34.958Z,42.50
2017-07-23T12:37:37.286Z,43.40
2017-07-23T12:42:39.171Z,43.30
2017-07-23T12:47:40.853Z,44.70
2017-07-23T12:52:43.714Z,44.30
2017-07-23T12:57:45.412Z,44.00
2017-07-23T13:02:47.769Z,43.90
2017-07-23T13:07:50.565Z,43.80
2017-07-23T13:12:52.702Z,45.60
2017-07-23T13:17:54.769Z,45.80
2017-07-23T13:22:56.408Z,45.70
2017-07-23T13:27:58.110Z,44.70
2017-07-23T13:32:59.910Z,44.80
2017-07-23T13:38:02.490Z,44.00
2017-07-23T13:43:06.583Z,44.50
2017-07-23T13:48:10.688Z,43.40
2017-07-23T13:53:14.191Z,44.10
2017-07-23T13:58:16.544Z,45.60
2017-07-23T14:03:18.188Z,44.40
2017-07-23T14:08:20.379Z,45.60
2017-07-23T14:13:22.380Z,45.80
2017-07-23T14:18:24.053Z,44.30
2017-07-23T14:23:25.718Z,43.60
2017-07-23T14:28:27.398Z,45.80
2017-07-23T14:33:29.015Z,43.10
2017-07-23T14:38:32.591Z,45.30
2017-07-23T14:43:34.435Z,42.90
2017-07-23T14:48:36.108Z,43.60
2017-07-23T14:53:39.739Z,42.60
2017-07-23T14:58:41.534Z,41.30
2017-07-23T15:03:43.416Z,41.40
2017-07-23T15:08:45.020Z,40.30
2017-07-23T15:13:46.941Z,39.90
2017-07-23T15:18:49.157Z,41.20
2017-07-23T15:23:51.129Z,41.70
2017-07-23T15:28:53.425Z,40.00
2017-07-23T15:33:55.436Z,41.60
2017-07-23T15:39:08.978Z,43.20
2017-07-23T15:44:11.744Z,41.10
2017-07-23T15:49:13.392Z,40.60
2017-07-23T15:54:15.205Z,41.60
2017-07-23T15:59:16.903Z,42.40
2017-07-23T16:04:18.639Z,42.20
2017-07-23T18:33:36.556Z,47.20
2017-07-23T18:38:38.230Z,48.30
2017-07-23T18:43:39.901Z,48.50
2017-07-23T18:48:41.503Z,48.50
2017-07-23T18:53:43.246Z,48.50
2017-07-23T18:58:45.738Z,48.70
2017-07-23T19:03:47.390Z,49.10
2017-07-23T19:08:49.047Z,49.10
2017-07-23T19:13:51.755Z,49.80
2017-07-23T19:18:53.656Z,49.30
2017-07-23T19:23:55.434Z,49.30
2017-07-23T19:28:57.120Z,48.70
2017-07-23T19:33:59.395Z,49.70
2017-07-23T19:39:02.604Z,49.90
2017-07-23T19:44:04.920Z,49.90
2017-07-23T19:49:07.770Z,51.20
2017-07-23T19:54:09.819Z,51.20
2017-07-23T19:59:12.432Z,50.60
2017-07-23T20:04:14.857Z,51.70
2017-07-23T20:09:20.361Z,51.70
2017-07-23T20:14:23.400Z,51.80
2017-07-23T20:19:25.098Z,51.70
2017-07-23T20:24:27.361Z,51.80
2017-07-23T20:29:33.563Z,51.90
2017-07-23T20:34:36.233Z,52.50
2017-07-23T20:39:38.342Z,52.90
2017-07-23T20:44:40.631Z,52.80
2017-07-23T20:49:42.996Z,52.90
2017-07-23T20:54:44.851Z,53.00
2017-07-23T20:59:46.663Z,52.80
2017-07-23T21:04:49.283Z,52.90
2017-07-23T21:09:52.066Z,52.70
2017-07-23T21:14:53.696Z,52.10
2017-07-23T21:19:55.411Z,52.50
2017-07-23T21:24:57.084Z,51.80
2017-07-23T21:29:58.757Z,51.00
2017-07-23T21:35:00.355Z,51.50
2017-07-23T21:40:02.102Z,52.30
2017-07-23T21:45:03.753Z,52.50
2017-07-23T21:50:05.910Z,52.10
2017-07-23T21:55:09.303Z,53.10
2017-07-23T22:00:11.461Z,53.00
2017-07-23T22:05:13.230Z,53.00
2017-07-23T22:10:14.919Z,53.10
2017-07-23T22:15:16.575Z,52.50
2017-07-23T22:20:18.819Z,52.90
2017-07-23T22:25:20.536Z,53.50
2017-07-23T22:30:22.209Z,53.50
2017-07-23T22:35:23.853Z,53.50
2017-07-23T22:40:25.538Z,54.50
2017-07-23T22:45:27.210Z,54.10
2017-07-23T22:50:28.824Z,54.70
2017-07-23T22:55:30.545Z,55.00
2017-07-23T23:00:32.245Z,55.50
2017-07-23T23:05:33.843Z,54.90
2017-07-23T23:10:35.569Z,55.30
2017-07-23T23:15:37.235Z,55.00
2017-07-23T23:20:38.907Z,55.00
2017-07-23T23:25:40.581Z,54.90
2017-07-23T23:30:43.306Z,54.90
2017-07-23T23:35:44.904Z,55.40
2017-07-23T23:40:46.584Z,55.20
2017-07-23T23:45:48.300Z,55.30
2017-07-23T23:50:50.571Z,55.60
2017-07-23T23:55:52.316Z,55.80
